createdAt,value
2022-08-26T00:03:39.408Z,22.60
2022-08-26T00:08:43.811Z,18.30
2022-08-26T00:13:49.651Z,26.80
2022-08-26T00:18:53.225Z,24.20
2022-08-26T00:23:56.279Z,20.40
2022-08-26T00:28:58.996Z,18.00
2022-08-26T00:34:03.179Z,18.10
2022-08-26T00:39:07.588Z,24.20
2022-08-26T00:44:14.053Z,19.20
2022-08-26T00:49:33.868Z,15.30
2022-08-26T00:54:42.376Z,17.70
2022-08-26T00:59:51.439Z,16.30
2022-08-26T01:04:59.109Z,12.20
2022-08-26T01:10:07.995Z,15.30
2022-08-26T01:15:16.342Z,9.20
2022-08-26T01:20:28.342Z,10.40
2022-08-26T01:25:33.578Z,10.70
2022-08-26T01:30:39.508Z,11.90
2022-08-26T01:35:43.390Z,27.90
2022-08-26T01:40:47.225Z,24.90
2022-08-26T01:45:51.583Z,15.80
2022-08-26T01:50:55.885Z,16.30
2022-08-26T01:56:01.330Z,15.60
2022-08-26T02:01:06.410Z,19.80
2022-08-26T02:06:10.371Z,10.20
2022-08-26T02:11:13.685Z,14.30
2022-08-26T02:16:19.477Z,14.90
2022-08-26T02:21:25.073Z,14.80
2022-08-26T02:26:27.887Z,11.60
2022-08-26T02:36:33.446Z,9.80
2022-08-26T02:41:44.073Z,8.40
2022-08-26T02:46:48.364Z,11.20
2022-08-26T02:51:52.696Z,9.00
2022-08-26T02:56:56.367Z,7.60
2022-08-26T03:02:00.492Z,8.00
2022-08-26T03:07:04.254Z,9.00
2022-08-26T03:12:08.045Z,9.10
2022-08-26T03:17:10.901Z,7.20
2022-08-26T03:22:14.533Z,9.30
2022-08-26T03:27:17.828Z,6.50
2022-08-26T03:32:20.805Z,8.20
2022-08-26T03:37:23.588Z,9.20
2022-08-26T03:42:26.472Z,6.80
2022-08-26T03:47:29.266Z,8.40
2022-08-26T03:52:32.077Z,7.80
2022-08-26T03:57:34.806Z,8.20
2022-08-26T04:02:38.156Z,16.60
2022-08-26T04:07:42.982Z,15.20
2022-08-26T04:12:46.361Z,16.80
2022-08-26T04:17:49.299Z,15.10
2022-08-26T04:22:52.645Z,27.40
2022-08-26T04:27:55.635Z,15.90
2022-08-26T04:32:58.709Z,10.00
2022-08-26T04:38:03.368Z,16.90
2022-08-26T04:43:08.987Z,16.10
2022-08-26T04:48:12.333Z,12.60
2022-08-26T04:53:20.533Z,14.00
2022-08-26T04:58:25.228Z,13.70
2022-08-26T05:03:30.534Z,13.90
2022-08-26T05:08:34.182Z,12.30
2022-08-26T05:13:39.223Z,13.30
2022-08-26T05:18:43.704Z,16.30
2022-08-26T05:23:50.553Z,16.50
2022-08-26T05:28:54.735Z,23.10
2022-08-26T05:33:59.236Z,18.60
2022-08-26T05:39:07.935Z,16.00
2022-08-26T05:44:20.246Z,19.80
2022-08-26T05:49:26.418Z,21.80
2022-08-26T05:54:29.544Z,21.50
2022-08-26T05:59:32.500Z,22.60
2022-08-26T06:04:35.559Z,22.40
2022-08-26T06:09:39.907Z,19.60
2022-08-26T06:14:42.878Z,24.60
2022-08-26T06:19:45.717Z,27.30
2022-08-26T06:25:07.442Z,20.60
2022-08-26T06:30:13.204Z,22.60
2022-08-26T06:35:16.404Z,17.50
2022-08-26T06:40:21.030Z,26.60
2022-08-26T06:45:24.230Z,15.90
2022-08-26T06:50:27.109Z,24.80
2022-08-26T06:55:30.477Z,19.80
2022-08-26T07:00:33.901Z,24.00
2022-08-26T07:05:37.116Z,20.00
2022-08-26T07:10:39.891Z,18.20
2022-08-26T07:15:42.800Z,13.70
2022-08-26T07:20:45.830Z,20.60
2022-08-26T07:25:48.553Z,21.20
2022-08-26T07:30:52.072Z,19.10
2022-08-26T07:35:56.247Z,17.10
2022-08-26T07:40:59.523Z,19.10
2022-08-26T07:46:04.291Z,18.30
2022-08-26T07:51:07.627Z,14.70
2022-08-26T07:56:11.626Z,18.00
2022-08-26T08:01:14.894Z,21.90
2022-08-26T08:06:21.358Z,17.00
2022-08-26T08:11:27.297Z,22.00
2022-08-26T08:16:32.224Z,16.80
2022-08-26T08:21:36.178Z,13.00
2022-08-26T08:26:39.479Z,18.90
2022-08-26T08:31:58.353Z,18.30
2022-08-26T08:37:07.344Z,14.40
2022-08-26T08:42:36.774Z,15.90
2022-08-26T08:47:50.522Z,15.10
2022-08-26T08:53:15.283Z,17.20
2022-08-26T08:58:22.079Z,17.50
2022-08-26T09:03:40.376Z,15.90
2022-08-26T09:08:47.030Z,15.30
2022-08-26T09:13:55.347Z,18.40
2022-08-26T09:19:11.472Z,14.00
2022-08-26T09:24:14.268Z,16.50
2022-08-26T09:29:26.849Z,13.50
2022-08-26T09:34:29.667Z,11.70
2022-08-26T09:39:37.523Z,13.00
2022-08-26T09:45:03.919Z,25.90
2022-08-26T09:50:30.160Z,15.50
2022-08-26T09:55:33.095Z,14.00
2022-08-26T10:00:39.369Z,13.70
2022-08-26T10:06:00.207Z,16.10
2022-08-26T10:11:11.247Z,12.10
2022-08-26T10:21:37.729Z,18.10
2022-08-26T10:26:54.441Z,17.80
2022-08-26T10:32:03.404Z,12.50
2022-08-26T10:37:15.636Z,15.80
2022-08-26T10:42:37.606Z,13.50
2022-08-26T10:47:48.697Z,12.70
2022-08-26T10:53:06.374Z,14.20
2022-08-26T10:58:30.201Z,16.90
2022-08-26T11:04:14.269Z,14.80
2022-08-26T11:09:45.948Z,14.10
2022-08-26T11:14:58.667Z,14.10
2022-08-26T11:20:08.933Z,12.00
2022-08-26T11:25:18.450Z,10.10
2022-08-26T11:30:21.543Z,15.70
2022-08-26T11:35:26.902Z,11.60
2022-08-26T11:40:35.410Z,18.30
2022-08-26T11:45:42.204Z,11.70
2022-08-26T11:50:55.394Z,15.10
2022-08-26T11:56:00.568Z,10.70
2022-08-26T12:01:09.928Z,10.50
2022-08-26T12:06:23.019Z,14.60
2022-08-26T12:11:27.285Z,15.00
2022-08-26T12:16:36.048Z,13.90
2022-08-26T12:21:38.826Z,12.60
2022-08-26T12:26:42.119Z,15.50
2022-08-26T12:31:44.959Z,13.90
2022-08-26T12:36:56.839Z,13.40
2022-08-26T12:42:04.501Z,13.70
2022-08-26T12:47:42.150Z,10.70
2022-08-26T12:52:52.393Z,11.50
2022-08-26T12:58:13.528Z,11.20
2022-08-26T13:03:34.557Z,13.60
2022-08-26T13:08:41.344Z,10.60
2022-08-26T13:13:45.832Z,11.40
2022-08-26T13:18:57.722Z,13.70
2022-08-26T13:24:16.848Z,13.70
2022-08-26T13:29:20.142Z,10.50
2022-08-26T13:34:24.234Z,15.10
2022-08-26T13:39:27.340Z,11.70
2022-08-26T13:44:30.295Z,11.30
2022-08-26T13:49:33.364Z,12.60
2022-08-26T13:54:36.411Z,12.50
2022-08-26T13:59:39.266Z,12.30
2022-08-26T14:04:43.600Z,13.10
2022-08-26T14:09:46.709Z,14.50
2022-08-26T14:14:49.617Z,13.00
2022-08-26T14:19:53.814Z,10.50
2022-08-26T14:24:56.960Z,13.60
2022-08-26T14:30:00.269Z,14.00
2022-08-26T14:35:03.325Z,13.90
2022-08-26T14:40:07.212Z,12.00
2022-08-26T14:45:15.998Z,16.20
2022-08-26T14:50:24.862Z,12.90
2022-08-26T14:55:28.203Z,12.40
2022-08-26T15:00:31.512Z,16.30
2022-08-26T15:05:34.646Z,10.70
2022-08-26T15:10:38.191Z,10.00
2022-08-26T15:15:41.083Z,11.10
2022-08-26T15:20:44.654Z,10.90
2022-08-26T15:25:48.321Z,11.70
2022-08-26T15:30:51.338Z,12.50
2022-08-26T15:35:55.981Z,23.30
2022-08-26T15:41:02.955Z,12.00
2022-08-26T15:46:11.726Z,13.40
2022-08-26T15:51:22.657Z,15.90
2022-08-26T15:56:32.661Z,12.80
2022-08-26T16:01:37.325Z,13.10
2022-08-26T16:06:42.563Z,12.70
2022-08-26T16:11:45.431Z,11.20
2022-08-26T16:16:49.232Z,13.40
2022-08-26T16:21:52.128Z,13.20
2022-08-26T16:26:54.986Z,13.40
2022-08-26T16:31:57.850Z,14.70
2022-08-26T16:37:00.757Z,12.60
2022-08-26T16:42:03.741Z,18.20
2022-08-26T16:47:06.916Z,15.30
2022-08-26T16:52:11.338Z,14.20
2022-08-26T16:57:16.908Z,14.40
2022-08-26T17:02:20.246Z,21.00
2022-08-26T17:07:23.635Z,14.10
2022-08-26T17:12:26.847Z,17.90
2022-08-26T17:17:29.708Z,16.60
2022-08-26T17:22:34.679Z,19.00
2022-08-26T17:27:37.812Z,22.40
2022-08-26T17:32:42.402Z,18.90
2022-08-26T17:37:45.275Z,16.60
2022-08-26T17:42:48.831Z,26.00
2022-08-26T17:47:53.707Z,20.10
2022-08-26T17:52:56.496Z,20.10
2022-08-26T17:57:59.486Z,24.50
2022-08-26T18:03:02.777Z,26.90
2022-08-26T18:08:06.421Z,32.70
2022-08-26T18:13:09.690Z,32.70
2022-08-26T18:18:16.079Z,39.60
2022-08-26T18:23:18.978Z,38.90
2022-08-26T18:28:21.815Z,22.50
2022-08-26T18:33:24.629Z,29.40
2022-08-26T18:38:28.463Z,19.20
2022-08-26T18:43:31.292Z,19.70
2022-08-26T18:48:36.765Z,22.10
2022-08-26T18:53:39.530Z,19.80
2022-08-26T18:58:42.249Z,20.70
2022-08-26T19:03:46.282Z,24.20
2022-08-26T19:08:50.175Z,21.10
2022-08-26T19:13:55.297Z,17.80
2022-08-26T19:18:58.942Z,23.70
2022-08-26T19:24:04.177Z,25.70
2022-08-26T19:29:07.136Z,27.20
2022-08-26T19:34:10.585Z,33.00
2022-08-26T19:39:13.460Z,39.70
2022-08-26T19:44:37.781Z,32.10
2022-08-26T19:49:40.578Z,28.70
2022-08-26T19:54:44.550Z,25.10
2022-08-26T19:59:47.517Z,26.70
2022-08-26T20:04:50.282Z,21.50
2022-08-26T20:09:53.116Z,22.80
2022-08-26T20:14:55.951Z,20.40
2022-08-26T20:20:28.454Z,29.90
2022-08-26T20:25:36.344Z,21.40
2022-08-26T20:30:40.170Z,26.00
2022-08-26T20:35:43.075Z,19.20
2022-08-26T20:40:46.287Z,19.40
2022-08-26T20:45:50.257Z,17.40
2022-08-26T20:50:57.533Z,23.30
2022-08-26T20:56:02.875Z,17.70
2022-08-26T21:01:08.271Z,15.70
2022-08-26T21:06:11.558Z,18.90
2022-08-26T21:11:15.176Z,17.00
2022-08-26T21:16:19.713Z,18.80
2022-08-26T21:21:25.025Z,15.30
2022-08-26T21:26:28.398Z,14.80
2022-08-26T21:31:32.375Z,18.60
2022-08-26T21:36:35.455Z,21.00
2022-08-26T21:41:39.217Z,16.20
2022-08-26T21:46:43.796Z,17.00
2022-08-26T21:51:48.487Z,19.10
2022-08-26T21:56:51.446Z,16.00
2022-08-26T22:01:54.718Z,18.10
2022-08-26T22:06:59.199Z,29.00
2022-08-26T22:12:02.204Z,21.00
2022-08-26T22:17:05.545Z,18.90
2022-08-26T22:22:08.584Z,22.20
2022-08-26T22:27:12.174Z,25.00
2022-08-26T22:32:15.241Z,18.20
2022-08-26T22:37:18.162Z,18.10
2022-08-26T22:42:21.007Z,20.40
2022-08-26T22:47:24.273Z,16.90
2022-08-26T22:52:27.491Z,17.00
2022-08-26T22:57:30.494Z,15.00
2022-08-26T23:02:33.340Z,17.00
2022-08-26T23:07:36.598Z,13.50
2022-08-26T23:12:39.513Z,14.50
2022-08-26T23:17:42.617Z,19.50
2022-08-26T23:22:45.544Z,14.70
2022-08-26T23:27:48.851Z,15.60
2022-08-26T23:32:52.155Z,11.70
2022-08-26T23:37:55.072Z,13.20
2022-08-26T23:43:05.738Z,12.60
2022-08-26T23:48:08.917Z,15.90
2022-08-26T23:53:19.489Z,19.00
2022-08-26T23:58:22.946Z,18.60
